Flight Track Log - Related Links

Times and Time Zones

All times are in EDT time to prevent confusion due to time zone crossing. See the ASQ5025 flight status page for this flight to view local times or setup timezone preferences in your user account.

Time Position Orientation Groundspeed Altitude Reporting Facility
EDT Latitude Longitude Course Direction KTS MPH feet Rate Location/Type
Sat 01:51:18 PM 42.9500 -87.8833 90° East 147 169 1,600  Level KMKE
Sat 01:51:48 PM 42.9500 -87.8500 90° East 154 177 2,100 1,955 Climbing KMKE
Sat 01:52:47 PM 42.9303 -87.8158 128° Southeast 197 227 4,500 2,300 Climbing Chicago Center
Sat 01:53:48 PM 42.8708 -87.8997 226° Southwest 263 303 6,700 2,439 Climbing Chicago Center
Sat 01:54:50 PM 42.8269 -87.9808 234° Southwest 265 305 9,500 2,419 Climbing Chicago Center
Sat 01:55:52 PM 42.7631 -88.0378 213° Southwest 283 326 11,700 2,537 Climbing Chicago Center
Sat 01:56:53 PM 42.6853 -88.0403 181° South 278 320 14,700 2,537 Climbing Chicago Center
Sat 01:57:55 PM 42.6072 -88.0436 182° South 279 321 16,900 1,645 Climbing Chicago Center
Sat 01:58:57 PM 42.5192 -88.0461 181° South 311 358 18,100 1,268 Climbing Chicago Center
Sat 01:59:58 PM 42.4389 -87.9942 154° Southeast 336 387 19,500 1,561 Climbing Chicago Center
Sat 02:01:00 PM 42.3522 -87.8939 139° Southeast 349 402 21,300 1,500 Climbing Chicago Center
Sat 02:02:02 PM 42.2869 -87.8172 139° Southeast 358 412 22,600 1,415 Climbing Chicago Center
Sat 02:03:03 PM 42.2478 -87.6606 109° East 381 438 24,200 1,463 Climbing Chicago Center
Sat 02:04:05 PM 42.2383 -87.5153 95° East 385 443 25,600 1,317 Climbing Chicago Center
Sat 02:05:06 PM 42.2281 -87.3661 95° East 396 456 26,900 1,220 Climbing Chicago Center
Sat 02:06:08 PM 42.2175 -87.2178 95° East 398 458 28,100 1,065 Climbing Chicago Center
Sat 02:07:10 PM 42.2075 -87.0672 95° East 402 463 29,100 927 Climbing Chicago Center
Sat 02:08:11 PM 42.1953 -86.9131 96° East 411 473 30,000 829 Climbing Chicago Center
Sat 02:09:13 PM 42.1858 -86.7578 95° East 416 479 30,800 780 Climbing Chicago Center
Sat 02:10:14 PM 42.1722 -86.5906 96° East 423 487 31,600 732 Climbing Chicago Center
Sat 02:11:16 PM 42.1600 -86.4308 96° East 428 493 32,300 780 Climbing Chicago Center
Sat 02:12:17 PM 42.1481 -86.2719 96° East 427 491 33,200 878 Climbing Chicago Center
Sat 02:13:19 PM 42.1361 -86.1128 96° East 426 490 34,100 919 Climbing Chicago Center
Sat 02:14:21 PM 42.1219 -85.9403 96° East 418 481 35,100 927 Climbing Chicago Center
Sat 02:15:22 PM 42.1092 -85.7847 96° East 419 482 36,000 878 Climbing Chicago Center
Sat 02:16:24 PM 42.0969 -85.6331 96° East 414 476 36,900 484 Climbing Chicago Center
Sat 02:17:26 PM 42.0831 -85.4822 97° East 410 472 37,000 49 Climbing Chicago Center
Sat 02:18:27 PM 42.0678 -85.2953 96° East 417 480 37,000  Level Chicago Center
Sat 02:19:24 PM 42.0567 -85.1478 96° East 412 474 37,000  Level Cleveland Center
Sat 02:20:24 PM 42.0442 -84.9903 96° East 412 474 37,000  Level Cleveland Center
Sat 02:21:24 PM 42.0294 -84.8269 97° East 417 480 37,000  Level Cleveland Center
Sat 02:22:24 PM 42.0144 -84.6667 97° East 428 493 37,000  Level Cleveland Center
Sat 02:23:24 PM 41.9992 -84.5064 97° East 428 493 37,000  Level Cleveland Center
Sat 02:24:24 PM 41.9836 -84.3517 98° East 428 493 37,000  Level Cleveland Center
Sat 02:25:24 PM 41.9672 -84.2083 99° East 422 486 37,000  Level Cleveland Center
Sat 02:26:24 PM 41.9511 -84.0567 98° East 422 486 37,000  Level Cleveland Center
Sat 02:27:24 PM 41.9347 -83.9022 98° East 422 486 37,000  Level Cleveland Center
Sat 02:28:24 PM 41.9206 -83.7478 97° East 417 480 37,000  Level Cleveland Center
Sat 02:29:24 PM 41.9036 -83.5964 99° East 417 480 37,000  Level Cleveland Center
Sat 02:30:24 PM 41.8889 -83.4394 97° East 412 474 37,000  Level Cleveland Center
Sat 02:31:24 PM 41.8717 -83.2881 99° East 412 474 37,000  Level Cleveland Center
Sat 02:32:24 PM 41.8544 -83.1311 98° East 412 474 37,000  Level Cleveland Center
Sat 02:33:24 PM 41.8389 -82.9800 98° East 412 474 37,000  Level Cleveland Center
Sat 02:34:24 PM 41.8233 -82.8233 98° East 412 474 37,000  Level Cleveland Center
Sat 02:35:24 PM 41.8075 -82.6669 98° East 412 474 37,000  Level Cleveland Center
Sat 02:36:24 PM 41.7894 -82.5131 99° East 417 480 37,000  Level Cleveland Center
Sat 02:37:24 PM 41.7711 -82.3539 99° East 417 480 37,000  Level Cleveland Center
Sat 02:38:24 PM 41.7547 -82.1975 98° East 422 486 37,000  Level Cleveland Center
Sat 02:39:24 PM 41.7381 -82.0467 98° East 422 486 37,000  Level Cleveland Center
Sat 02:40:24 PM 41.7192 -81.8878 99° East 422 486 37,000  Level Cleveland Center
Sat 02:41:24 PM 41.6981 -81.7150 99° East 428 493 37,000  Level Cleveland Center
Sat 02:42:24 PM 41.6806 -81.5561 98° East 428 493 37,000  Level Cleveland Center
Sat 02:43:24 PM 41.6611 -81.3975 99° East 428 493 37,000  Level Cleveland Center
Sat 02:44:24 PM 41.6411 -81.2389 100° East 428 493 37,000  Level Cleveland Center
Sat 02:45:24 PM 41.6233 -81.0803 98° East 428 493 37,000  Level Cleveland Center
Sat 02:46:24 PM 41.6008 -80.9192 101° East 435 501 37,000  Level Cleveland Center
Sat 02:47:24 PM 41.5825 -80.7747 100° East 435 501 37,000  Level Cleveland Center
Sat 02:48:24 PM 41.5619 -80.6164 100° East 435 501 37,000  Level Cleveland Center
Sat 02:49:24 PM 41.5408 -80.4556 100° East 430 495 37,000  Level Cleveland Center
Sat 02:50:24 PM 41.5197 -80.2781 99° East 430 495 37,000  Level Cleveland Center
Sat 02:51:24 PM 41.4983 -80.1203 100° East 430 495 37,000  Level Cleveland Center
Sat 02:52:24 PM 41.4789 -79.9844 101° East 423 487 37,000  Level Cleveland Center
Sat 02:53:24 PM 41.4592 -79.8267 99° East 423 487 37,000  Level Cleveland Center
Sat 02:54:24 PM 41.4353 -79.6692 101° East 429 494 37,000  Level Cleveland Center
Sat 02:55:24 PM 41.3839 -79.5067 113° Southeast 424 488 37,000  Level Cleveland Center
Sat 02:56:24 PM 41.3094 -79.3806 128° Southeast 424 488 37,000  Level Cleveland Center
Sat 02:57:24 PM 41.2372 -79.2550 127° Southeast 429 494 37,000 -300 Level Cleveland Center
Sat 02:58:24 PM 41.2103 -79.0981 103° East 421 484 36,400 -1,000 Descending Cleveland Center
Sat 02:59:24 PM 41.2122 -78.9325 89° East 421 484 35,000 -700 Descending Cleveland Center
Sat 03:00:24 PM 41.2139 -78.7669 89° East 434 499 35,000  Level Cleveland Center
Sat 03:02:44 PM 41.2169 -78.3817 89° East 456 525 35,000 -333 Level New York Center
Sat 03:03:42 PM 41.2169 -78.2161 90° East 456 525 33,900 -1,017 Descending New York Center
Sat 03:04:42 PM 41.2039 -78.0572 96° East 451 519 33,000 -450 Descending New York Center
Sat 03:05:42 PM 41.1825 -77.8950 100° East 446 513 33,000  Level New York Center
Sat 03:06:43 PM 41.1633 -77.7275 99° East 451 519 33,000  Level New York Center
Sat 03:07:44 PM 41.1414 -77.5656 100° East 451 519 33,000 -305 Level New York Center
Sat 03:08:41 PM 41.1236 -77.4039 98° East 446 513 32,400 -763 Descending New York Center
Sat 03:09:42 PM 41.1022 -77.2642 101° East 441 507 31,500 -1,033 Descending New York Center
Sat 03:10:43 PM 41.0783 -77.0883 100° East 435 501 30,300 -1,563 Descending New York Center
Sat 03:11:41 PM 41.0592 -76.9381 100° East 429 494 28,400 -2,085 Descending New York Center
Sat 03:12:41 PM 41.0375 -76.7900 101° East 412 474 26,200 -2,132 Descending New York Center
Sat 03:13:42 PM 41.0175 -76.6508 101° East 397 457 24,100 -2,033 Descending New York Center
Sat 03:14:42 PM 40.9864 -76.5189 107° East 380 437 22,100 -1,884 Descending New York Center
Sat 03:15:43 PM 40.9550 -76.3925 108° East 370 426 20,300 -1,785 Descending New York Center
Sat 03:16:43 PM 40.9294 -76.2722 106° East 350 403 18,500 -1,627 Descending New York Center
Sat 03:17:41 PM 40.9014 -76.1547 107° East 343 395 17,100 -1,412 Descending New York Center
Sat 03:18:42 PM 40.8767 -76.0567 108° East 329 379 15,700 -1,525 Descending New York Center
Sat 03:19:43 PM 40.8469 -75.9308 107° East 324 373 14,000 -1,361 Descending New York Center
Sat 03:20:41 PM 40.8203 -75.8247 108° East 319 367 13,000 -508 Descending New York Center
Sat 03:21:41 PM 40.7933 -75.7186 109° East 308 354 13,000  Level New York Center
Sat 03:22:42 PM 40.7703 -75.6236 108° East 308 354 13,000  Level New York Center
Sat 03:23:42 PM 40.7453 -75.5206 108° East 303 349 13,000  Level New York Center
Sat 03:24:44 PM 40.7203 -75.4122 107° East 303 349 13,000  Level New York Center
Sat 03:25:41 PM 40.6939 -75.2900 106° East 308 354 13,000 -308 Level New York Center
Sat 03:26:41 PM 40.6747 -75.1928 105° East 308 354 12,400 -885 Descending New York Center
Sat 03:27:43 PM 40.6242 -75.0939 124° Southeast 295 339 11,200 -1,171 Descending New York Center
Sat 03:28:44 PM 40.5731 -75.0114 129° Southeast 290 334 10,000 -605 Descending New York Center
Sat 03:29:42 PM 40.5411 -74.9139 113° Southeast 290 334 10,000  Level New York Center
Sat 03:30:20 PM 40.5167 -74.8500 117° Southeast 289 333 10,000  Level New York TRACON
Sat 03:31:21 PM 40.4833 -74.7500 114° Southeast 294 338 10,000  Level New York TRACON
Sat 03:32:20 PM 40.4667 -74.6500 102° East 299 344 10,000  Level New York TRACON
Sat 03:33:20 PM 40.4333 -74.5500 114° Southeast 299 344 10,000  Level New York TRACON
Sat 03:34:21 PM 40.4500 -74.4500 78° East 286 329 10,000  Level New York TRACON
Sat 03:35:20 PM 40.4833 -74.3500 66° East 286 329 10,000 -421 Level New York TRACON
Sat 03:36:15 PM 40.5000 -74.2667 75° East 269 310 9,200 -1,304 Descending New York TRACON
Sat 03:37:15 PM 40.5333 -74.1833 62° Northeast 260 299 7,500 -1,700 Descending New York TRACON
Sat 03:38:15 PM 40.5833 -74.1167 45° Northeast 250 288 5,800 -1,750 Descending New York TRACON
Sat 03:39:15 PM 40.6500 -74.0667 30° Northeast 242 278 4,000 -900 Descending New York TRACON
Sat 03:40:15 PM 40.7000 -74.0333 27° Northeast 243 280 4,000  Level New York TRACON
Sat 03:41:21 PM 40.7667 -74.0000 21° North 243 280 4,000 -50 Level New York TRACON
Sat 03:42:15 PM 40.8333 -73.9667 21° North 250 288 3,900 -526 Descending New York TRACON
Sat 03:43:15 PM 40.8833 -73.9167 37° Northeast 248 285 3,000 -550 Descending New York TRACON
Sat 03:44:15 PM 40.9167 -73.8667 49° Northeast 196 226 2,800 -550 Descending New York TRACON
Sat 03:45:15 PM 40.8833 -73.8333 143° Southeast 173 199 1,900 -714 Descending New York TRACON
Sat 03:46:21 PM 40.8333 -73.8333 180° South 135 155 1,300 -619 Descending New York TRACON
Sat 03:47:21 PM 40.8167 -73.8500 217° Southwest 124 143 600 -700 Descending New York TRACON
Sat 03:49:00 PM 40.7772 -73.8726 180° South  Level Estimated
Sat 03:56:00 PM 40.7772 -73.8726 180° South  Level Estimated
Sat 03:57:00 PM 40.7772 -73.8726 180° South  Level Estimated

Login

Don't have an account? Register now (free) for customized features, flight alerts, and more!